Time;durP1;ratioP1;P1;durP2;ratioP2;P2;SDS_P1;SDS_P2;PMS_P1;PMS_P2;Temp;Humidity;BMP_temperature;BMP_pressure;BME280_temperature;BME280_humidity;BME280_pressure;Samples;Min_cycle;Max_cycle;Signal;HPM_P1;HPM_P2
2023/01/20 00:00:29;;;;;;;35.08;20.48;;;1.10;99.90;;;;;;4992622;28;20486;-55
2023/01/20 00:02:55;;;;;;;34.47;20.20;;;1.10;99.90;;;;;;4991769;28;20033;-54
2023/01/20 00:05:21;;;;;;;35.38;21.10;;;1.10;99.90;;;;;;4992188;28;20482;-56
2023/01/20 00:07:46;;;;;;;31.65;20.85;;;1.00;99.90;;;;;;4991095;28;20030;-57
2023/01/20 00:10:12;;;;;;;35.83;19.48;;;1.00;99.90;;;;;;4992507;28;20030;-59
2023/01/20 00:12:37;;;;;;;29.75;19.48;;;0.90;99.90;;;;;;4991700;28;20022;-56
2023/01/20 00:15:04;;;;;;;34.03;18.42;;;0.90;99.90;;;;;;4992119;28;20026;-57
2023/01/20 00:17:29;;;;;;;33.35;18.08;;;0.80;99.90;;;;;;4992108;28;20034;-57
2023/01/20 00:19:55;;;;;;;28.00;18.88;;;0.70;99.90;;;;;;4992148;28;20034;-59
2023/01/20 00:22:21;;;;;;;31.60;18.75;;;0.80;99.90;;;;;;4991625;28;20097;-56
2023/01/20 00:25:01;;;;;;;34.58;19.75;;;0.80;99.90;;;;;;5006428;22;20489;-58
2023/01/20 00:27:27;;;;;;;36.88;19.63;;;0.70;99.90;;;;;;4990954;28;20018;-59
2023/01/20 00:29:52;;;;;;;41.35;20.45;;;0.70;99.90;;;;;;4992007;28;20026;-59
2023/01/20 00:32:18;;;;;;;30.95;18.63;;;0.70;99.90;;;;;;4991513;28;20026;-59
2023/01/20 00:34:44;;;;;;;28.42;17.65;;;0.60;99.90;;;;;;4991862;28;20478;-55
2023/01/20 00:37:10;;;;;;;32.15;18.02;;;0.50;99.90;;;;;;4992101;28;20033;-59
2023/01/20 00:39:35;;;;;;;30.17;18.00;;;0.60;99.90;;;;;;4991974;28;20027;-57
2023/01/20 00:42:01;;;;;;;45.75;26.70;;;0.50;99.90;;;;;;4991410;28;20061;-59
2023/01/20 00:44:26;;;;;;;37.45;21.08;;;0.50;99.90;;;;;;4991699;28;20118;-59
2023/01/20 00:46:52;;;;;;;32.53;19.38;;;0.50;99.90;;;;;;4990729;28;20018;-58
2023/01/20 00:49:17;;;;;;;26.80;17.17;;;0.50;99.90;;;;;;4991900;28;20026;-56
2023/01/20 00:51:43;;;;;;;28.33;17.00;;;0.50;99.90;;;;;;4992164;28;20031;-54
2023/01/20 00:54:08;;;;;;;27.02;16.05;;;0.40;99.90;;;;;;4991241;28;20490;-50
2023/01/20 00:56:34;;;;;;;23.52;14.80;;;0.30;99.90;;;;;;4992017;28;20402;-58
2023/01/20 00:58:59;;;;;;;21.67;15.02;;;0.30;99.90;;;;;;4991875;28;20035;-59
2023/01/20 01:01:25;;;;;;;23.13;15.18;;;0.20;99.90;;;;;;4991912;28;20517;-60
2023/01/20 01:03:53;;;;;;;22.00;14.55;;;0.20;99.90;;;;;;4990496;28;20114;-58
2023/01/20 01:06:19;;;;;;;26.38;16.40;;;0.30;99.90;;;;;;4991785;28;20037;-59
2023/01/20 01:08:44;;;;;;;23.50;15.73;;;0.20;99.90;;;;;;4991841;28;20018;-60
2023/01/20 01:11:11;;;;;;;20.45;14.70;;;0.20;99.90;;;;;;4991853;28;20023;-60
2023/01/20 01:13:39;;;;;;;22.83;14.88;;;0.20;99.90;;;;;;4990940;28;20115;-59
2023/01/20 01:16:15;;;;;;;24.77;15.23;;;0.20;99.90;;;;;;4991630;28;20058;-59
2023/01/20 01:18:41;;;;;;;23.27;15.40;;;0.20;99.90;;;;;;4991626;28;20105;-59
2023/01/20 01:21:09;;;;;;;26.52;16.98;;;0.20;99.90;;;;;;4991779;28;20351;-59
2023/01/20 01:23:35;;;;;;;30.35;18.55;;;0.30;99.90;;;;;;4990837;28;20053;-61
2023/01/20 01:26:00;;;;;;;28.63;18.60;;;0.30;99.90;;;;;;4989305;28;20034;-59
2023/01/20 01:28:26;;;;;;;35.00;19.30;;;0.40;99.90;;;;;;4995079;28;20093;-59
2023/01/20 01:30:51;;;;;;;29.05;17.52;;;0.40;99.90;;;;;;4995327;28;20395;-59
2023/01/20 01:33:17;;;;;;;27.50;17.42;;;0.40;99.90;;;;;;4994625;28;20554;-58
2023/01/20 01:35:42;;;;;;;31.05;19.08;;;0.60;99.90;;;;;;4995398;28;20031;-56
2023/01/20 01:38:08;;;;;;;31.50;18.58;;;0.70;99.90;;;;;;4995637;28;20056;-52
2023/01/20 01:40:34;;;;;;;28.50;17.52;;;0.60;99.90;;;;;;4994191;28;20080;-55
2023/01/20 01:42:59;;;;;;;26.63;17.85;;;0.70;99.90;;;;;;4993153;28;20119;-53
2023/01/20 01:45:27;;;;;;;25.95;17.98;;;0.60;99.90;;;;;;4995056;28;20107;-55
2023/01/20 01:47:56;;;;;;;25.25;16.08;;;0.50;99.90;;;;;;4994881;28;20026;-54
2023/01/20 01:50:29;;;;;;;28.23;17.75;;;0.50;99.90;;;;;;4994969;28;20062;-53
2023/01/20 01:52:55;;;;;;;28.33;17.70;;;0.50;99.90;;;;;;4994040;28;20023;-53
2023/01/20 01:55:26;;;;;;;31.48;18.40;;;0.50;99.90;;;;;;4994657;28;20326;-56
2023/01/20 01:57:52;;;;;;;36.58;18.45;;;0.50;99.90;;;;;;4994731;28;20046;-55
2023/01/20 02:00:18;;;;;;;28.42;19.52;;;0.40;99.90;;;;;;4994696;28;20034;-57
2023/01/20 02:02:44;;;;;;;27.60;18.90;;;0.50;99.90;;;;;;4994000;28;20491;-56
2023/01/20 02:05:13;;;;;;;30.02;17.73;;;0.60;99.90;;;;;;4994432;28;20355;-54
2023/01/20 02:07:39;;;;;;;32.17;19.38;;;0.50;99.90;;;;;;4994346;28;20026;-55
2023/01/20 02:10:05;;;;;;;27.85;18.00;;;0.40;99.90;;;;;;4994464;28;20425;-55
2023/01/20 02:12:30;;;;;;;24.95;17.35;;;0.40;99.90;;;;;;4993719;28;20050;-58
2023/01/20 02:15:01;;;;;;;26.27;18.85;;;0.40;99.90;;;;;;4994335;28;20034;-59
2023/01/20 02:17:31;;;;;;;29.65;18.13;;;0.50;99.90;;;;;;4994412;28;20040;-58
2023/01/20 02:20:18;;;;;;;28.83;19.13;;;0.50;99.90;;;;;;4994255;28;20402;-57
2023/01/20 02:23:20;;;;;;;34.92;20.33;;;0.50;99.90;;;;;;4993572;28;20027;-59
2023/01/20 02:26:10;;;;;;;30.92;19.35;;;0.50;99.90;;;;;;4993673;28;20160;-54
2023/01/20 02:28:47;;;;;;;34.47;19.15;;;0.60;99.90;;;;;;4992924;28;20018;-58
2023/01/20 02:31:31;;;;;;;32.65;18.95;;;0.50;99.90;;;;;;4994066;28;20045;-59
2023/01/20 02:34:29;;;;;;;29.88;17.52;;;0.40;99.90;;;;;;4993441;28;20049;-61
2023/01/20 02:37:15;;;;;;;25.48;16.83;;;0.40;99.90;;;;;;4960789;28;20133;-60
2023/01/20 02:40:10;;;;;;;25.02;17.42;;;0.70;99.90;;;;;;4993770;28;20089;-60
2023/01/20 02:42:41;;;;;;;28.13;16.10;;;0.20;99.90;;;;;;4980026;28;20034;-56
2023/01/20 02:45:41;;;;;;;27.05;15.80;;;0.10;99.90;;;;;;4993670;28;20018;-56
2023/01/20 02:48:14;;;;;;;26.58;17.52;;;0.00;99.90;;;;;;4993886;28;20033;-57
2023/01/20 02:50:51;;;;;;;29.02;18.65;;;0.30;99.90;;;;;;4993785;28;20049;-58
2023/01/20 02:53:20;;;;;;;24.70;16.08;;;0.20;99.90;;;;;;4993050;28;20022;-54
2023/01/20 02:55:48;;;;;;;25.85;15.50;;;0.10;99.90;;;;;;4993487;28;20117;-58
2023/01/20 02:58:21;;;;;;;24.15;15.82;;;;;;;;;;4992477;28;20307;-57
2023/01/20 03:00:52;;;;;;;26.27;15.10;;;-0.20;99.90;;;;;;4993508;28;20101;-60
2023/01/20 03:03:23;;;;;;;21.23;15.60;;;-0.30;99.90;;;;;;4991487;28;20077;-55
2023/01/20 03:05:55;;;;;;;20.40;14.07;;;-0.30;99.90;;;;;;4993477;28;20033;-55
2023/01/20 03:08:23;;;;;;;22.90;14.32;;;-0.30;99.90;;;;;;4993570;28;20022;-59
2023/01/20 03:10:52;;;;;;;24.60;17.30;;;-0.30;99.90;;;;;;4993363;28;20022;-60
2023/01/20 03:13:30;;;;;;;25.38;14.35;;;-0.30;99.90;;;;;;4992548;28;20022;-54
2023/01/20 03:16:00;;;;;;;22.00;14.35;;;-0.40;99.90;;;;;;4993424;28;20475;-56
2023/01/20 03:18:28;;;;;;;22.25;14.90;;;-0.40;99.90;;;;;;4993234;28;20018;-60
2023/01/20 03:20:56;;;;;;;24.10;15.27;;;-0.40;99.90;;;;;;4993242;28;20101;-54
2023/01/20 03:23:21;;;;;;;24.67;15.38;;;-0.40;99.90;;;;;;4992984;28;20113;-59
2023/01/20 03:25:48;;;;;;;22.42;15.73;;;-0.40;99.90;;;;;;4993739;28;20574;-59
2023/01/20 03:28:14;;;;;;;27.35;14.63;;;-0.20;99.90;;;;;;4992643;28;20026;-60
2023/01/20 03:30:39;;;;;;;22.60;14.32;;;-0.10;99.90;;;;;;4993579;28;20077;-60
2023/01/20 03:33:06;;;;;;;23.52;15.88;;;-0.20;99.90;;;;;;4993286;28;20026;-59
2023/01/20 03:35:32;;;;;;;22.75;14.93;;;-0.30;99.90;;;;;;4994621;28;20371;-59
2023/01/20 03:37:57;;;;;;;21.60;14.32;;;-0.40;99.90;;;;;;4993243;28;20026;-58
2023/01/20 03:40:26;;;;;;;21.88;15.73;;;-0.40;99.90;;;;;;4993040;28;20029;-60
2023/01/20 03:42:58;;;;;;;26.70;15.77;;;-0.50;99.90;;;;;;4992835;28;20449;-59
2023/01/20 03:45:48;;;;;;;25.38;14.65;;;-0.50;99.90;;;;;;4993099;28;20050;-59
2023/01/20 03:48:24;;;;;;;25.23;16.08;;;-0.50;99.90;;;;;;4992987;28;20398;-59
2023/01/20 03:51:00;;;;;;;23.42;16.08;;;-0.50;99.90;;;;;;4992153;28;20022;-59
2023/01/20 03:53:36;;;;;;;26.42;16.90;;;-0.50;99.90;;;;;;4991979;28;20109;-60
2023/01/20 03:56:13;;;;;;;26.30;16.13;;;-0.40;99.90;;;;;;4992787;28;20089;-58
2023/01/20 03:58:42;;;;;;;24.25;16.33;;;-0.40;99.90;;;;;;4992726;28;20064;-61
2023/01/20 04:01:10;;;;;;;22.45;15.23;;;-0.40;99.90;;;;;;4992421;28;20394;-59
2023/01/20 04:03:41;;;;;;;23.10;15.27;;;-0.30;99.90;;;;;;4990446;28;20465;-59
2023/01/20 04:06:10;;;;;;;23.65;15.35;;;-0.30;99.90;;;;;;4992409;28;20494;-60
2023/01/20 04:08:46;;;;;;;24.77;15.15;;;-0.30;99.90;;;;;;4992662;28;20022;-60
2023/01/20 04:11:11;;;;;;;25.90;16.08;;;-0.30;99.90;;;;;;4992418;28;20431;-60
2023/01/20 04:13:37;;;;;;;24.55;16.17;;;-0.30;99.90;;;;;;4991622;28;20065;-60
2023/01/20 04:16:09;;;;;;;25.92;15.90;;;-0.30;99.90;;;;;;4991956;28;20105;-59
2023/01/20 04:18:40;;;;;;;27.05;16.40;;;-0.40;99.90;;;;;;4990984;28;20076;-60
2023/01/20 04:21:07;;;;;;;25.20;15.15;;;-0.40;99.90;;;;;;4992332;28;20081;-59
2023/01/20 04:23:49;;;;;;;21.83;14.23;;;-0.40;99.90;;;;;;4991713;28;20113;-57
2023/01/20 04:26:15;;;;;;;22.25;15.68;;;-0.40;99.90;;;;;;4992027;28;20117;-60
2023/01/20 04:28:41;;;;;;;28.90;15.13;;;-0.40;99.90;;;;;;4992113;28;20109;-59
2023/01/20 04:31:06;;;;;;;25.77;16.08;;;-0.50;99.90;;;;;;4992041;28;20491;-60
2023/01/20 04:33:35;;;;;;;24.98;15.85;;;-0.50;99.90;;;;;;4991368;28;20398;-60
2023/01/20 04:36:00;;;;;;;24.88;15.80;;;-0.50;99.90;;;;;;4990350;28;20475;-59
2023/01/20 04:38:25;;;;;;;21.27;15.35;;;-0.50;99.90;;;;;;4991533;28;20065;-59
2023/01/20 04:40:51;;;;;;;25.15;17.40;;;-0.40;99.90;;;;;;4991650;28;20080;-54
2023/01/20 04:43:17;;;;;;;27.00;16.15;;;-0.40;99.90;;;;;;4990971;28;20512;-58
2023/01/20 04:45:42;;;;;;;28.50;17.25;;;-0.30;99.90;;;;;;4991631;28;20022;-60
2023/01/20 04:48:08;;;;;;;24.88;16.17;;;-0.30;99.90;;;;;;4991783;28;20490;-59
2023/01/20 04:50:38;;;;;;;29.35;15.80;;;-0.30;99.90;;;;;;4991941;28;20018;-59
2023/01/20 04:53:04;;;;;;;24.52;15.18;;;-0.40;99.90;;;;;;4990884;28;20034;-58
2023/01/20 04:55:31;;;;;;;21.58;15.93;;;-0.40;99.90;;;;;;4991378;28;20022;-58
2023/01/20 04:57:57;;;;;;;22.80;14.88;;;-0.40;99.90;;;;;;4991906;28;20023;-58
2023/01/20 05:00:22;;;;;;;25.40;16.13;;;-0.40;99.90;;;;;;4992711;28;20045;-56
2023/01/20 05:02:48;;;;;;;24.70;15.63;;;-0.40;99.90;;;;;;4994955;28;20030;-56
2023/01/20 05:05:13;;;;;;;24.85;16.20;;;-0.50;99.90;;;;;;4994244;28;20031;-55
2023/01/20 05:07:39;;;;;;;24.73;15.20;;;-0.50;99.90;;;;;;4995511;28;20014;-58
2023/01/20 05:10:05;;;;;;;24.35;15.90;;;-0.50;99.90;;;;;;4995581;28;20105;-56
2023/01/20 05:12:31;;;;;;;24.23;15.60;;;-0.50;99.90;;;;;;4995044;28;20421;-56
2023/01/20 05:14:56;;;;;;;21.80;15.85;;;-0.60;99.90;;;;;;4995386;28;20026;-53
2023/01/20 05:17:22;;;;;;;23.98;15.52;;;-0.50;99.90;;;;;;4995113;28;20076;-61
2023/01/20 05:19:47;;;;;;;29.33;16.65;;;-0.60;99.90;;;;;;4995233;28;20038;-60
2023/01/20 05:22:13;;;;;;;29.27;17.80;;;-0.60;99.90;;;;;;4994616;28;20161;-60
2023/01/20 05:24:38;;;;;;;34.55;19.60;;;-0.70;99.90;;;;;;4994897;28;20418;-59
2023/01/20 05:27:04;;;;;;;67.38;26.13;;;-0.80;99.90;;;;;;4995222;28;20139;-59
2023/01/20 05:29:29;;;;;;;66.70;21.83;;;-0.90;99.90;;;;;;4993922;28;20442;-59
2023/01/20 05:31:55;;;;;;;79.72;21.65;;;-1.00;99.90;;;;;;4995026;28;20506;-56
2023/01/20 05:34:20;;;;;;;196.88;43.72;;;-1.10;99.90;;;;;;4995098;28;20027;-59
2023/01/20 05:36:50;;;;;;;73.05;29.67;;;-1.20;99.90;;;;;;4994897;28;20032;-58
2023/01/20 05:39:16;;;;;;;108.15;25.15;;;-1.10;99.90;;;;;;4994895;28;20022;-59
2023/01/20 05:41:41;;;;;;;97.80;21.67;;;-1.20;99.90;;;;;;4993870;28;20022;-57
2023/01/20 05:44:07;;;;;;;71.57;22.60;;;-1.30;99.90;;;;;;4994324;28;20030;-59
2023/01/20 05:46:33;;;;;;;87.00;19.75;;;-1.40;99.90;;;;;;4994996;28;20025;-59
2023/01/20 05:48:58;;;;;;;70.60;20.52;;;-1.40;99.90;;;;;;4995212;28;20022;-61
2023/01/20 05:51:24;;;;;;;63.13;19.13;;;-1.40;99.90;;;;;;4993693;28;20026;-57
2023/01/20 05:53:49;;;;;;;126.05;21.10;;;-1.50;99.90;;;;;;4993943;28;20561;-54
2023/01/20 05:56:15;;;;;;;115.05;19.08;;;-1.50;99.90;;;;;;4994669;28;20049;-57
2023/01/20 05:58:41;;;;;;;65.93;19.17;;;-1.60;99.90;;;;;;4994606;28;20156;-56
2023/01/20 06:01:09;;;;;;;216.27;22.48;;;-1.60;99.90;;;;;;4994700;28;20114;-53
2023/01/20 06:03:35;;;;;;;137.13;21.98;;;-1.60;99.90;;;;;;4993735;28;20289;-54
2023/01/20 06:06:03;;;;;;;126.43;21.10;;;-1.70;99.90;;;;;;4994293;28;20163;-56
2023/01/20 06:08:29;;;;;;;86.97;22.27;;;-1.80;99.90;;;;;;4994981;28;20101;-57
2023/01/20 06:10:54;;;;;;;78.47;20.98;;;-1.90;99.90;;;;;;4996938;28;20050;-59
2023/01/20 06:13:20;;;;;;;96.43;20.73;;;-2.00;99.90;;;;;;4994511;28;20045;-57
2023/01/20 06:15:51;;;;;;;43.45;20.05;;;-1.90;99.90;;;;;;4994810;28;20022;-57
2023/01/20 06:18:17;;;;;;;37.72;20.50;;;-1.90;99.90;;;;;;4995976;28;20387;-56
2023/01/20 06:20:42;;;;;;;52.75;20.33;;;-1.80;99.90;;;;;;4993624;28;20026;-59
2023/01/20 06:23:08;;;;;;;78.70;19.83;;;-1.70;99.90;;;;;;4993360;28;20033;-58
2023/01/20 06:25:33;;;;;;;84.30;20.85;;;-1.70;99.90;;;;;;5017777;23;20076;-53
2023/01/20 06:27:59;;;;;;;112.43;20.52;;;-1.70;99.90;;;;;;5012473;28;20026;-55
2023/01/20 06:30:24;;;;;;;67.68;18.98;;;-1.70;99.90;;;;;;5014033;28;20030;-57
2023/01/20 06:32:50;;;;;;;91.05;18.38;;;-1.70;99.90;;;;;;5012636;28;20026;-56
2023/01/20 06:35:16;;;;;;;128.02;20.52;;;-1.70;99.90;;;;;;5013367;28;20474;-56
2023/01/20 06:37:41;;;;;;;31.63;20.63;;;-1.80;99.90;;;;;;5013405;28;20061;-59
2023/01/20 06:40:07;;;;;;;29.20;18.70;;;-1.70;99.90;;;;;;5012429;28;20033;-57
2023/01/20 06:42:33;;;;;;;28.52;20.00;;;-1.60;99.90;;;;;;5012649;28;20033;-61
2023/01/20 06:44:58;;;;;;;32.75;21.38;;;-1.60;99.90;;;;;;5013246;28;20030;-57
2023/01/20 06:47:24;;;;;;;35.85;24.98;;;-1.50;99.90;;;;;;5011668;28;20026;-58
2023/01/20 06:49:49;;;;;;;31.25;23.27;;;-1.40;99.90;;;;;;5013202;28;20033;-60
2023/01/20 06:52:15;;;;;;;34.42;24.50;;;-1.40;99.90;;;;;;5012691;28;20402;-57
2023/01/20 06:54:40;;;;;;;32.42;22.05;;;-1.30;99.90;;;;;;5012965;28;20049;-57
2023/01/20 06:57:06;;;;;;;28.05;20.40;;;-1.20;99.90;;;;;;5013344;28;20080;-60
2023/01/20 06:59:31;;;;;;;32.22;21.13;;;-1.20;99.90;;;;;;5012961;28;20022;-57
2023/01/20 07:01:57;;;;;;;28.98;20.30;;;-1.00;99.90;;;;;;5012271;28;20034;-53
2023/01/20 07:04:22;;;;;;;28.13;19.92;;;-1.00;99.90;;;;;;5012713;28;20030;-58
2023/01/20 07:06:48;;;;;;;26.63;19.58;;;-0.90;99.90;;;;;;5013112;28;20046;-51
2023/01/20 07:09:13;;;;;;;25.63;17.92;;;-0.70;99.90;;;;;;5012763;28;20030;-57
2023/01/20 07:11:39;;;;;;;23.13;16.45;;;-0.70;99.90;;;;;;5012806;28;20468;-58
2023/01/20 07:14:05;;;;;;;23.15;16.73;;;-0.60;99.90;;;;;;5012047;28;20474;-59
2023/01/20 07:16:31;;;;;;;21.35;14.93;;;-0.50;99.90;;;;;;5012389;28;20401;-61
2023/01/20 07:18:57;;;;;;;24.90;15.55;;;-0.40;99.90;;;;;;5011408;28;20022;-57
2023/01/20 07:21:23;;;;;;;20.52;15.32;;;-0.10;99.90;;;;;;5012366;28;20065;-56
2023/01/20 07:23:48;;;;;;;21.70;15.77;;;-0.20;99.90;;;;;;5011018;28;20030;-57
2023/01/20 07:26:17;;;;;;;23.08;16.67;;;-0.20;99.90;;;;;;5012381;28;20088;-56
2023/01/20 07:28:43;;;;;;;22.05;15.82;;;-0.20;99.90;;;;;;5012523;28;20080;-55
2023/01/20 07:31:14;;;;;;;27.13;18.33;;;-0.20;99.90;;;;;;5012576;28;20030;-57
2023/01/20 07:33:39;;;;;;;26.23;17.20;;;-0.20;99.90;;;;;;5011477;28;20030;-57
2023/01/20 07:36:07;;;;;;;23.42;17.02;;;-0.10;99.90;;;;;;5012326;28;20037;-54
2023/01/20 07:38:33;;;;;;;20.70;15.32;;;-0.10;99.90;;;;;;5012358;28;20030;-56
2023/01/20 07:41:00;;;;;;;23.33;15.90;;;0.00;99.90;;;;;;5012459;28;20034;-56
2023/01/20 07:43:26;;;;;;;20.83;14.18;;;0.00;99.90;;;;;;5011258;28;20033;-54
2023/01/20 07:46:03;;;;;;;20.63;14.43;;;-0.10;99.90;;;;;;5011722;28;20033;-53
2023/01/20 07:48:31;;;;;;;22.92;14.25;;;0.00;99.90;;;;;;5012370;28;20548;-57
2023/01/20 07:51:01;;;;;;;22.35;16.08;;;0.00;99.90;;;;;;5010933;28;20529;-56
2023/01/20 07:53:34;;;;;;;23.27;15.32;;;0.10;99.90;;;;;;5012041;28;20022;-56
2023/01/20 07:56:01;;;;;;;19.42;14.35;;;0.10;99.90;;;;;;5011946;28;20068;-59
2023/01/20 07:58:28;;;;;;;19.65;14.70;;;0.10;99.90;;;;;;5012114;28;20397;-58
2023/01/20 08:00:54;;;;;;;21.27;15.30;;;0.20;99.90;;;;;;5012182;28;20018;-52
2023/01/20 08:03:19;;;;;;;21.48;16.42;;;0.20;99.90;;;;;;5009866;28;20390;-57
2023/01/20 08:05:45;;;;;;;20.25;15.20;;;0.30;99.90;;;;;;5011932;28;20029;-57
2023/01/20 08:08:10;;;;;;;20.80;15.93;;;0.20;99.90;;;;;;5012016;28;20449;-57
2023/01/20 08:10:36;;;;;;;22.27;15.10;;;0.30;99.90;;;;;;5011429;28;20034;-59
2023/01/20 08:13:01;;;;;;;18.20;13.85;;;0.30;99.90;;;;;;5009932;28;20433;-57
2023/01/20 08:15:27;;;;;;;20.30;13.90;;;0.30;99.90;;;;;;5010491;28;20629;-58
2023/01/20 08:17:54;;;;;;;22.52;14.63;;;0.20;99.90;;;;;;5010617;28;20025;-56
2023/01/20 08:20:19;;;;;;;22.85;13.60;;;0.20;99.90;;;;;;5010507;28;20061;-57
2023/01/20 08:22:45;;;;;;;18.73;14.23;;;0.20;99.90;;;;;;5011125;28;20068;-59
2023/01/20 08:25:10;;;;;;;21.45;14.95;;;0.20;99.90;;;;;;5011300;28;20073;-60
2023/01/20 08:27:36;;;;;;;19.88;15.52;;;0.40;99.90;;;;;;5011452;28;20030;-57
2023/01/20 08:30:01;;;;;;;20.60;14.75;;;0.30;99.90;;;;;;5011554;28;20022;-54
2023/01/20 08:32:28;;;;;;;20.13;14.32;;;0.40;99.90;;;;;;5010788;28;20018;-59
2023/01/20 08:34:53;;;;;;;21.30;14.32;;;0.40;99.90;;;;;;5011274;28;20030;-57
2023/01/20 08:37:19;;;;;;;21.63;14.95;;;0.50;99.90;;;;;;5011529;28;20026;-60
2023/01/20 08:39:45;;;;;;;22.33;15.27;;;0.60;99.90;;;;;;5010081;28;20041;-55
2023/01/20 08:42:10;;;;;;;22.85;14.80;;;0.60;99.90;;;;;;5009512;28;20022;-57
2023/01/20 08:44:36;;;;;;;22.10;14.80;;;0.70;99.90;;;;;;5009297;28;20034;-53
2023/01/20 08:47:02;;;;;;;20.75;15.10;;;0.90;99.90;;;;;;5011230;28;20084;-58
2023/01/20 08:49:28;;;;;;;22.48;14.60;;;0.80;99.90;;;;;;5011345;28;20021;-55
2023/01/20 08:51:55;;;;;;;18.42;14.20;;;0.90;99.90;;;;;;5010493;28;20064;-50
2023/01/20 08:54:21;;;;;;;20.33;14.43;;;1.00;99.90;;;;;;5011186;28;20030;-59
2023/01/20 08:56:49;;;;;;;20.20;14.98;;;0.90;99.90;;;;;;5011078;28;20029;-56
2023/01/20 08:59:15;;;;;;;17.98;14.35;;;1.00;99.90;;;;;;5010912;28;20524;-55
2023/01/20 09:01:42;;;;;;;20.20;14.52;;;0.90;99.90;;;;;;5010697;28;20113;-53
2023/01/20 09:04:08;;;;;;;17.88;13.65;;;0.90;99.90;;;;;;5010664;28;20021;-53
2023/01/20 09:06:52;;;;;;;20.08;15.00;;;0.80;99.90;;;;;;5011124;28;20041;-56
2023/01/20 09:09:20;;;;;;;21.83;16.15;;;0.90;99.90;;;;;;5011338;28;20486;-61
2023/01/20 09:11:49;;;;;;;27.67;16.50;;;1.50;99.90;;;;;;5009497;28;20394;-56
2023/01/20 09:14:23;;;;;;;24.70;15.60;;;2.30;99.90;;;;;;5010700;28;20033;-58
2023/01/20 09:16:48;;;;;;;21.10;15.35;;;3.70;99.90;;;;;;5011350;28;20033;-59
2023/01/20 09:19:14;;;;;;;20.50;14.20;;;4.30;99.90;;;;;;5011464;28;20529;-57
2023/01/20 09:21:41;;;;;;;14.57;11.88;;;5.40;99.90;;;;;;5009420;28;20030;-53
2023/01/20 09:24:07;;;;;;;16.10;13.32;;;6.30;99.90;;;;;;5010535;28;20033;-52
2023/01/20 09:26:37;;;;;;;16.83;12.32;;;7.00;99.90;;;;;;5009578;28;20034;-58
2023/01/20 09:29:07;;;;;;;14.73;12.23;;;7.70;99.90;;;;;;5011419;28;20026;-58
2023/01/20 09:31:33;;;;;;;16.25;12.75;;;;;;;;;;5011095;28;20072;-56
2023/01/20 09:34:00;;;;;;;15.63;12.00;;;7.90;99.90;;;;;;5010538;28;20123;-55
2023/01/20 09:36:28;;;;;;;16.95;12.18;;;7.80;99.90;;;;;;5010936;28;20034;-60
2023/01/20 09:44:47;;;;;;;16.33;12.60;;;7.90;99.90;;;;;;4969201;28;20094;-60
2023/01/20 09:47:24;;;;;;;17.50;11.27;;;8.10;99.90;;;;;;4969550;28;20082;-59
2023/01/20 09:53:24;;;;;;;18.48;11.45;;;8.50;99.90;;;;;;4972337;28;20078;-60
2023/01/20 09:55:56;;;;;;;16.50;12.13;;;8.90;99.90;;;;;;4988602;28;20509;-53
2023/01/20 09:58:28;;;;;;;11.88;10.57;;;8.90;99.90;;;;;;5012574;28;20088;-58
2023/01/20 10:01:14;;;;;;;12.43;9.65;;;9.40;99.90;;;;;;4999557;28;20064;-54
2023/01/20 10:04:08;;;;;;;11.48;10.35;;;9.60;99.90;;;;;;5006849;28;20510;-58
2023/01/20 10:06:44;;;;;;;14.75;10.90;;;9.10;99.90;;;;;;5013444;28;20029;-57
2023/01/20 10:09:31;;;;;;;19.33;11.18;;;8.80;99.90;;;;;;5014701;28;20425;-57
2023/01/20 10:12:21;;;;;;;16.25;11.75;;;7.70;99.90;;;;;;5013594;28;20026;-55
2023/01/20 10:15:00;;;;;;;17.85;13.40;;;7.00;99.90;;;;;;5006812;28;20096;-53
2023/01/20 10:17:31;;;;;;;18.02;14.15;;;6.40;99.90;;;;;;5014194;28;20087;-60
2023/01/20 10:20:31;;;;;;;18.70;13.15;;;6.30;99.90;;;;;;5014323;28;20083;-57
2023/01/20 10:23:09;;;;;;;15.65;13.85;;;6.20;99.90;;;;;;5013366;28;20485;-56
2023/01/20 10:25:42;;;;;;;21.95;15.35;;;5.70;99.90;;;;;;5012788;28;20071;-54
2023/01/20 10:28:21;;;;;;;21.35;14.90;;;5.50;99.90;;;;;;5013768;28;20050;-53
2023/01/20 10:30:47;;;;;;;26.35;14.27;;;5.80;99.90;;;;;;4994264;28;20494;-60
2023/01/20 10:33:19;;;;;;;21.27;14.77;;;6.30;99.90;;;;;;4993365;28;20084;-60
2023/01/20 10:35:50;;;;;;;16.92;13.43;;;6.70;99.90;;;;;;4994083;28;20445;-55
2023/01/20 10:38:48;;;;;;;19.08;13.23;;;7.20;99.90;;;;;;4994235;28;20030;-58
2023/01/20 10:41:20;;;;;;;17.92;13.40;;;7.40;99.90;;;;;;5008716;28;20126;-54
2023/01/20 10:43:46;;;;;;;17.63;13.80;;;7.60;99.90;;;;;;4993246;28;20490;-58
2023/01/20 10:46:37;;;;;;;16.80;12.15;;;7.50;99.90;;;;;;4992487;28;20107;-61
2023/01/20 10:49:30;;;;;;;19.35;12.98;;;7.50;99.90;;;;;;4994294;28;20444;-60
2023/01/20 10:52:07;;;;;;;16.25;12.50;;;7.20;99.90;;;;;;4993564;28;20026;-59
2023/01/20 10:54:55;;;;;;;17.25;12.80;;;6.90;99.90;;;;;;4994086;28;20450;-58
2023/01/20 10:57:21;;;;;;;20.42;13.77;;;6.90;99.90;;;;;;4992840;28;20040;-58
2023/01/20 10:59:52;;;;;;;21.98;11.98;;;6.80;99.90;;;;;;5000465;28;20561;-57
2023/01/20 11:02:30;;;;;;;19.38;12.23;;;6.70;99.90;;;;;;5012445;28;20422;-60
2023/01/20 11:05:13;;;;;;;16.42;12.05;;;6.70;99.90;;;;;;5012733;28;20076;-55
2023/01/20 11:07:39;;;;;;;17.75;11.93;;;6.70;99.90;;;;;;5013043;28;20034;-60
2023/01/20 11:10:16;;;;;;;20.20;11.95;;;6.40;99.90;;;;;;5013204;28;20022;-55
2023/01/20 11:12:43;;;;;;;15.32;11.43;;;6.30;99.90;;;;;;5012449;28;20030;-56
2023/01/20 11:15:45;;;;;;;24.02;12.57;;;6.20;99.90;;;;;;5012001;28;20060;-52
2023/01/20 11:18:14;;;;;;;16.40;12.55;;;6.00;99.90;;;;;;5011783;28;20029;-53
2023/01/20 11:20:49;;;;;;;19.17;12.48;;;5.70;99.90;;;;;;5013330;28;20026;-54
2023/01/20 11:23:56;;;;;;;14.45;10.52;;;5.60;99.90;;;;;;5012552;28;20104;-54
2023/01/20 11:26:34;;;;;;;20.27;12.20;;;5.50;99.90;;;;;;5013286;28;20081;-54
2023/01/20 11:29:09;;;;;;;24.67;12.65;;;5.20;99.90;;;;;;5006607;28;20062;-57
2023/01/20 11:31:50;;;;;;;17.55;11.68;;;4.90;99.90;;;;;;5008626;28;20026;-53
2023/01/20 11:34:18;;;;;;;20.50;11.80;;;4.70;99.90;;;;;;5010551;28;20030;-57
2023/01/20 11:36:44;;;;;;;20.13;11.75;;;4.60;99.90;;;;;;5010649;28;20080;-56
2023/01/20 11:39:35;;;;;;;18.23;12.68;;;4.40;99.90;;;;;;5012200;28;20025;-53
2023/01/20 11:42:19;;;;;;;17.73;12.93;;;4.30;99.90;;;;;;5006245;28;20058;-47
2023/01/20 11:45:00;;;;;;;18.10;12.13;;;4.20;99.90;;;;;;5011995;28;20041;-55
2023/01/20 11:47:33;;;;;;;22.45;12.32;;;4.00;99.90;;;;;;5012335;28;20397;-52
2023/01/20 11:50:08;;;;;;;17.40;12.63;;;3.90;99.90;;;;;;5012616;28;20077;-61
2023/01/20 11:52:43;;;;;;;19.67;13.25;;;3.70;99.90;;;;;;5011897;28;20080;-55
2023/01/20 11:55:19;;;;;;;17.45;11.63;;;3.70;99.90;;;;;;5014630;28;20029;-58
2023/01/20 11:57:57;;;;;;;20.25;13.60;;;3.70;99.90;;;;;;5014944;28;20028;-53
2023/01/20 12:00:28;;;;;;;20.13;13.23;;;3.70;99.90;;;;;;5014685;28;20083;-53
2023/01/20 12:02:59;;;;;;;21.77;13.32;;;3.70;99.90;;;;;;5014774;28;20029;-56
2023/01/20 12:05:36;;;;;;;24.90;14.05;;;3.60;99.90;;;;;;5010182;28;20413;-51
2023/01/20 12:08:04;;;;;;;22.45;13.38;;;3.60;99.90;;;;;;5011011;28;20026;-49
2023/01/20 12:10:33;;;;;;;20.17;14.38;;;3.60;99.90;;;;;;5010982;28;20025;-55
2023/01/20 12:13:19;;;;;;;26.77;14.60;;;3.60;99.90;;;;;;5008917;28;20062;-53
2023/01/20 12:15:53;;;;;;;20.00;13.20;;;3.60;99.90;;;;;;5010331;28;20036;-51
2023/01/20 12:18:34;;;;;;;22.20;14.68;;;3.70;99.90;;;;;;5011366;28;20030;-47
2023/01/20 12:21:17;;;;;;;22.25;14.00;;;3.60;99.90;;;;;;5012621;28;20037;-54
2023/01/20 12:24:21;;;;;;;20.98;12.15;;;3.70;99.90;;;;;;5011620;28;20026;-53
2023/01/20 12:26:47;;;;;;;24.50;13.38;;;3.70;99.90;;;;;;5033916;23;20708;-57
2023/01/20 12:29:29;;;;;;;24.55;12.98;;;3.80;99.90;;;;;;5010862;28;20077;-55
2023/01/20 12:31:54;;;;;;;27.13;13.35;;;3.90;99.90;;;;;;4989769;28;20367;-56
2023/01/20 12:34:27;;;;;;;23.52;12.15;;;4.00;99.90;;;;;;4992743;28;20033;-55
2023/01/20 12:37:12;;;;;;;18.75;11.73;;;4.00;99.90;;;;;;5011255;28;20032;-55
2023/01/20 12:39:46;;;;;;;16.58;11.82;;;3.80;99.90;;;;;;5011214;28;20030;-52
2023/01/20 12:42:41;;;;;;;22.85;12.68;;;3.80;99.90;;;;;;5007893;28;20101;-49
2023/01/20 12:45:24;;;;;;;22.30;11.98;;;3.70;99.90;;;;;;4992570;28;20453;-51
2023/01/20 12:48:20;;;;;;;19.77;12.02;;;3.70;99.90;;;;;;5010177;28;20478;-54
2023/01/20 12:50:46;;;;;;;25.35;12.00;;;3.80;99.90;;;;;;5003205;28;20038;-62
2023/01/20 12:53:20;;;;;;;19.83;10.70;;;3.90;99.90;;;;;;5009148;28;20048;-59
2023/01/20 12:56:14;;;;;;;15.27;9.98;;;4.00;99.90;;;;;;5011455;28;20390;-54
2023/01/20 12:58:57;;;;;;;13.65;8.95;;;4.10;99.90;;;;;;5009315;28;20572;-53